createdAt,value
2023-05-15T00:02:12.893Z,16.38
2023-05-15T00:04:39.801Z,16.70
2023-05-15T00:07:06.678Z,17.50
2023-05-15T00:09:33.546Z,17.77
2023-05-15T00:12:00.324Z,16.73
2023-05-15T00:14:27.078Z,16.63
2023-05-15T00:16:53.972Z,17.02
2023-05-15T00:19:20.935Z,15.68
2023-05-15T00:21:47.849Z,17.30
2023-05-15T00:24:14.715Z,17.08
2023-05-15T00:26:41.520Z,16.80
2023-05-15T00:29:08.305Z,17.67
2023-05-15T00:31:35.212Z,17.75
2023-05-15T00:34:02.068Z,18.92
2023-05-15T00:36:29.600Z,18.52
2023-05-15T00:38:56.469Z,17.90
2023-05-15T00:41:28.543Z,19.02
2023-05-15T00:43:56.365Z,19.17
2023-05-15T00:46:24.727Z,19.25
2023-05-15T00:48:52.553Z,20.42
2023-05-15T00:51:19.479Z,19.80
2023-05-15T00:53:46.369Z,19.80
2023-05-15T00:56:13.406Z,21.50
2023-05-15T00:58:41.886Z,20.65
2023-05-15T01:01:08.893Z,19.90
2023-05-15T01:03:37.549Z,20.73
2023-05-15T01:06:04.809Z,21.65
2023-05-15T01:08:47.651Z,21.42
2023-05-15T01:11:16.590Z,20.75
2023-05-15T01:13:44.400Z,20.52
2023-05-15T01:16:11.575Z,21.83
2023-05-15T01:18:38.570Z,22.08
2023-05-15T01:21:31.855Z,22.48
2023-05-15T01:24:26.235Z,22.55
2023-05-15T01:27:17.461Z,23.88
2023-05-15T01:30:08.143Z,23.10
2023-05-15T01:32:43.184Z,23.58
2023-05-15T01:35:23.596Z,24.83
2023-05-15T01:38:11.409Z,25.58
2023-05-15T01:40:38.583Z,26.27
2023-05-15T01:43:12.179Z,26.10
2023-05-15T01:45:42.518Z,28.67
2023-05-15T01:48:12.332Z,26.77
2023-05-15T01:50:41.354Z,28.92
2023-05-15T01:53:10.399Z,28.80
2023-05-15T01:55:38.902Z,27.90
2023-05-15T01:58:06.586Z,28.60
2023-05-15T02:00:34.582Z,28.42
2023-05-15T02:03:02.703Z,28.25
2023-05-15T02:05:30.880Z,28.35
2023-05-15T02:07:59.110Z,29.25
2023-05-15T02:10:26.729Z,27.75
2023-05-15T02:12:54.928Z,28.65
2023-05-15T02:15:24.386Z,28.50
2023-05-15T02:17:51.398Z,28.45
2023-05-15T02:20:18.277Z,27.50
2023-05-15T02:22:45.304Z,28.13
2023-05-15T02:25:12.114Z,28.77
2023-05-15T02:28:00.757Z,26.10
2023-05-15T02:30:52.263Z,25.55
2023-05-15T02:33:50.045Z,27.08
2023-05-15T02:36:28.601Z,26.77
2023-05-15T02:38:59.154Z,26.20
2023-05-15T02:41:26.756Z,26.25
2023-05-15T02:43:55.363Z,26.73
2023-05-15T02:46:25.019Z,25.15
2023-05-15T02:48:54.491Z,25.35
2023-05-15T02:51:22.064Z,25.13
2023-05-15T02:53:49.732Z,25.05
2023-05-15T02:56:16.567Z,25.40
2023-05-15T02:58:43.536Z,25.02
2023-05-15T03:01:10.392Z,24.73
2023-05-15T03:03:37.327Z,24.58
2023-05-15T03:06:04.270Z,25.65
2023-05-15T03:08:31.078Z,27.25
2023-05-15T03:10:58.293Z,26.88
2023-05-15T03:13:25.330Z,27.30
2023-05-15T03:15:53.357Z,27.83
2023-05-15T03:18:20.612Z,28.13
2023-05-15T03:20:49.110Z,28.23
2023-05-15T03:23:16.064Z,29.27
2023-05-15T03:25:42.918Z,28.02
2023-05-15T03:28:09.925Z,27.52
2023-05-15T03:30:36.810Z,27.52
2023-05-15T03:33:04.106Z,25.35
2023-05-15T03:35:32.303Z,26.52
2023-05-15T03:37:59.104Z,24.92
2023-05-15T03:40:25.944Z,25.90
2023-05-15T03:42:53.509Z,24.88
2023-05-15T03:45:21.087Z,26.23
2023-05-15T03:47:49.150Z,25.75
2023-05-15T03:50:16.400Z,24.77
2023-05-15T03:52:43.372Z,26.17
2023-05-15T03:55:10.384Z,26.08
2023-05-15T03:57:37.294Z,25.58
2023-05-15T04:00:09.923Z,25.48
2023-05-15T04:02:41.012Z,26.73
2023-05-15T04:05:08.983Z,25.67
2023-05-15T04:07:37.187Z,28.50
2023-05-15T04:10:04.637Z,28.50
2023-05-15T04:12:34.903Z,30.23
2023-05-15T04:15:23.366Z,31.58
2023-05-15T04:17:53.418Z,31.65
2023-05-15T04:20:23.477Z,30.65
2023-05-15T04:22:51.635Z,31.40
2023-05-15T04:25:20.109Z,30.92
2023-05-15T04:27:47.546Z,31.95
2023-05-15T04:30:14.475Z,32.50
2023-05-15T04:32:42.276Z,31.92
2023-05-15T04:35:11.694Z,32.80
2023-05-15T04:37:40.217Z,33.10
2023-05-15T04:40:08.374Z,33.17
2023-05-15T04:42:37.742Z,31.77
2023-05-15T04:45:07.369Z,34.95
2023-05-15T04:47:34.539Z,33.67
2023-05-15T04:50:01.726Z,32.15
2023-05-15T04:52:28.558Z,34.05
2023-05-15T04:54:55.831Z,32.85
2023-05-15T04:57:23.040Z,32.58
2023-05-15T04:59:50.118Z,31.50
2023-05-15T05:02:21.224Z,30.95
2023-05-15T05:04:48.398Z,31.13
2023-05-15T05:07:15.658Z,30.50
2023-05-15T05:09:42.667Z,28.77
2023-05-15T05:12:10.463Z,27.42
2023-05-15T05:14:37.462Z,25.10
2023-05-15T05:17:04.558Z,26.63
2023-05-15T05:19:31.398Z,25.92
2023-05-15T05:22:01.364Z,25.45
2023-05-15T05:24:28.486Z,25.50
2023-05-15T05:26:58.073Z,26.77
2023-05-15T05:29:26.004Z,25.20
2023-05-15T05:31:53.469Z,25.75
2023-05-15T05:34:20.733Z,27.15
2023-05-15T05:36:47.796Z,27.58
2023-05-15T05:39:16.868Z,28.42
2023-05-15T05:41:44.263Z,28.15
2023-05-15T05:44:11.430Z,27.20
2023-05-15T05:46:38.280Z,26.02
2023-05-15T05:49:05.458Z,26.73
2023-05-15T05:51:32.409Z,27.85
2023-05-15T05:53:59.125Z,27.83
2023-05-15T05:56:26.492Z,27.92
2023-05-15T05:58:53.537Z,27.65
2023-05-15T06:01:21.100Z,22.50
2023-05-15T06:03:48.075Z,22.48
2023-05-15T06:06:15.000Z,22.67
2023-05-15T06:08:41.784Z,21.75
2023-05-15T06:11:08.576Z,21.20
2023-05-15T06:13:35.810Z,21.48
2023-05-15T06:16:02.672Z,21.55
2023-05-15T06:18:29.669Z,20.35
2023-05-15T06:20:58.709Z,22.35
2023-05-15T06:23:26.577Z,22.63
2023-05-15T06:25:53.607Z,21.23
2023-05-15T06:28:20.520Z,22.33
2023-05-15T06:30:47.332Z,21.98
2023-05-15T06:33:14.224Z,19.85
2023-05-15T06:35:41.225Z,19.40
2023-05-15T06:38:08.135Z,19.42
2023-05-15T06:40:35.171Z,19.27
2023-05-15T06:43:01.997Z,19.50
2023-05-15T06:45:28.980Z,20.92
2023-05-15T06:47:56.092Z,20.13
2023-05-15T06:50:23.471Z,17.15
2023-05-15T06:52:50.212Z,17.67
2023-05-15T06:55:17.057Z,17.17
2023-05-15T06:57:43.777Z,17.23
2023-05-15T07:00:11.473Z,17.67
2023-05-15T07:02:38.353Z,17.80
2023-05-15T07:05:06.772Z,16.95
2023-05-15T07:07:33.638Z,16.40
2023-05-15T07:10:00.358Z,16.02
2023-05-15T07:12:27.221Z,15.73
2023-05-15T07:14:54.193Z,16.42
2023-05-15T07:17:21.018Z,17.65
2023-05-15T07:19:47.897Z,17.48
2023-05-15T07:22:14.744Z,18.20
2023-05-15T07:24:41.578Z,18.85
2023-05-15T07:27:08.403Z,18.95
2023-05-15T07:29:35.199Z,18.70
2023-05-15T07:32:01.992Z,18.63
2023-05-15T07:34:28.743Z,18.10
2023-05-15T07:36:55.522Z,18.05
2023-05-15T07:39:22.327Z,18.80
2023-05-15T07:41:49.297Z,20.38
2023-05-15T07:44:16.135Z,18.55
2023-05-15T07:46:43.122Z,18.75
2023-05-15T07:49:10.023Z,18.00
2023-05-15T07:51:36.857Z,18.75
2023-05-15T07:54:04.601Z,19.42
2023-05-15T07:56:32.532Z,20.92
2023-05-15T07:58:59.332Z,20.25
2023-05-15T08:01:26.205Z,18.70
2023-05-15T08:03:53.136Z,19.73
2023-05-15T08:06:20.169Z,19.65
2023-05-15T08:08:46.965Z,19.77
2023-05-15T08:11:13.894Z,18.85
2023-05-15T08:13:40.768Z,18.58
2023-05-15T08:16:07.666Z,17.90
2023-05-15T08:18:34.564Z,18.92
2023-05-15T08:21:02.949Z,20.15
2023-05-15T08:23:30.904Z,19.52
2023-05-15T08:25:57.675Z,17.58
2023-05-15T08:28:24.571Z,17.95
2023-05-15T08:30:51.385Z,18.05
2023-05-15T08:33:18.216Z,18.35
2023-05-15T08:35:44.994Z,15.85
2023-05-15T08:38:11.850Z,17.23
2023-05-15T08:40:40.861Z,17.23
2023-05-15T08:43:15.128Z,18.27
2023-05-15T08:45:43.126Z,17.27
2023-05-15T08:48:21.062Z,17.40
2023-05-15T08:50:49.163Z,15.63
2023-05-15T08:53:16.134Z,17.05
2023-05-15T08:55:43.280Z,16.20
2023-05-15T08:58:10.461Z,18.10
2023-05-15T09:00:37.926Z,18.25
2023-05-15T09:03:05.680Z,20.30
2023-05-15T09:05:33.344Z,20.08
2023-05-15T09:08:05.459Z,22.27
2023-05-15T09:10:33.511Z,21.60
2023-05-15T09:13:02.600Z,24.02
2023-05-15T09:15:30.856Z,24.80
2023-05-15T09:17:59.055Z,24.90
2023-05-15T09:20:37.530Z,26.88
2023-05-15T09:23:21.439Z,27.23
2023-05-15T09:25:53.128Z,27.10
2023-05-15T09:28:32.047Z,28.65
2023-05-15T09:31:03.375Z,27.08
2023-05-15T09:33:40.145Z,27.30
2023-05-15T09:36:09.652Z,25.75
2023-05-15T09:38:42.667Z,26.15
2023-05-15T09:41:11.397Z,26.05
2023-05-15T09:43:40.367Z,24.58
2023-05-15T09:46:12.944Z,23.25
2023-05-15T09:48:40.087Z,22.08
2023-05-15T09:51:16.884Z,22.05
2023-05-15T09:53:49.903Z,22.75
2023-05-15T09:56:17.864Z,22.60
2023-05-15T09:58:58.442Z,21.85
2023-05-15T10:01:27.347Z,25.67
2023-05-15T10:04:03.088Z,23.30
2023-05-15T10:06:43.150Z,22.05
2023-05-15T10:09:11.354Z,22.02
2023-05-15T10:11:45.285Z,20.83
2023-05-15T10:14:18.865Z,20.02
2023-05-15T10:16:45.997Z,20.33
2023-05-15T10:19:13.832Z,18.63
2023-05-15T10:21:42.096Z,21.30
2023-05-15T10:24:10.754Z,18.98
2023-05-15T10:26:40.268Z,20.10
2023-05-15T10:29:21.181Z,20.98
2023-05-15T10:31:49.816Z,21.73
2023-05-15T10:34:18.558Z,22.77
2023-05-15T10:36:46.119Z,25.02
2023-05-15T10:39:13.005Z,23.85
2023-05-15T10:41:40.609Z,23.73
2023-05-15T10:44:08.032Z,26.20
2023-05-15T10:46:36.743Z,23.40
2023-05-15T10:49:04.955Z,23.65
2023-05-15T10:51:33.456Z,24.92
2023-05-15T10:54:03.655Z,23.98
2023-05-15T10:56:32.671Z,26.02
2023-05-15T10:59:10.280Z,24.40
2023-05-15T11:01:41.194Z,24.00
2023-05-15T11:04:16.136Z,23.13
2023-05-15T11:06:49.032Z,23.10
2023-05-15T11:09:21.835Z,23.42
2023-05-15T11:11:51.771Z,22.25
2023-05-15T11:14:23.958Z,22.58
2023-05-15T11:16:54.025Z,22.85
2023-05-15T11:19:32.879Z,23.00
2023-05-15T11:22:08.915Z,23.30
2023-05-15T11:24:58.482Z,22.15
2023-05-15T11:27:46.356Z,21.77
2023-05-15T11:30:15.875Z,22.42
2023-05-15T11:32:47.580Z,23.50
2023-05-15T11:35:37.201Z,24.70
2023-05-15T11:38:09.718Z,24.33
2023-05-15T11:41:03.174Z,24.27
2023-05-15T11:43:36.314Z,21.20
2023-05-15T11:46:11.014Z,20.50
2023-05-15T11:48:43.872Z,18.60
2023-05-15T11:51:31.624Z,17.95
2023-05-15T11:53:59.038Z,18.23
2023-05-15T11:56:30.407Z,17.90
2023-05-15T11:59:01.124Z,17.85
2023-05-15T12:01:38.444Z,17.17
2023-05-15T12:04:14.134Z,19.98
2023-05-15T12:06:44.444Z,18.60
2023-05-15T12:09:27.059Z,16.25
2023-05-15T12:11:55.924Z,15.15
2023-05-15T12:14:30.539Z,15.27
2023-05-15T12:17:04.428Z,11.88
2023-05-15T12:19:33.255Z,12.88
2023-05-15T12:22:00.217Z,11.90
2023-05-15T12:24:27.261Z,11.50
2023-05-15T12:26:56.027Z,11.65
2023-05-15T12:29:26.322Z,10.93
2023-05-15T12:31:53.933Z,10.65
2023-05-15T12:34:21.779Z,9.75
2023-05-15T12:36:48.766Z,10.35
2023-05-15T12:39:15.780Z,10.80
2023-05-15T12:41:44.010Z,9.90
2023-05-15T12:44:20.957Z,9.57
2023-05-15T12:46:48.109Z,9.45
2023-05-15T12:49:22.696Z,7.82
2023-05-15T12:51:50.003Z,6.35
2023-05-15T12:54:21.021Z,6.68
2023-05-15T12:56:48.671Z,6.20
2023-05-15T12:59:15.741Z,7.32
2023-05-15T13:01:42.743Z,7.07
2023-05-15T13:04:10.400Z,8.50
2023-05-15T13:06:46.491Z,7.45
2023-05-15T13:09:14.192Z,9.30
2023-05-15T13:11:45.008Z,8.55
2023-05-15T13:14:17.106Z,10.73
2023-05-15T13:16:47.356Z,10.30
2023-05-15T13:19:14.581Z,10.23
2023-05-15T13:21:41.464Z,10.02
2023-05-15T13:24:10.549Z,8.55
2023-05-15T13:26:37.865Z,8.32
2023-05-15T13:29:04.831Z,7.18
2023-05-15T13:31:32.399Z,6.90
2023-05-15T13:33:59.274Z,6.75
2023-05-15T13:36:26.073Z,6.25
2023-05-15T13:38:52.913Z,6.63
2023-05-15T13:41:19.710Z,6.10
2023-05-15T13:43:47.882Z,5.78
2023-05-15T13:46:14.922Z,5.40
2023-05-15T13:48:41.668Z,4.88
2023-05-15T13:51:08.477Z,4.70
2023-05-15T13:53:35.897Z,4.15
2023-05-15T13:56:03.301Z,4.30
2023-05-15T13:58:30.168Z,4.38
2023-05-15T14:00:56.979Z,3.92
2023-05-15T14:03:23.907Z,3.45
2023-05-15T14:05:51.761Z,3.60
2023-05-15T14:08:18.670Z,3.40
2023-05-15T14:10:45.528Z,4.43
2023-05-15T14:13:12.519Z,4.30
2023-05-15T14:15:39.335Z,4.05
2023-05-15T14:18:06.189Z,3.28
2023-05-15T14:20:33.043Z,3.33
2023-05-15T14:22:59.837Z,2.47
2023-05-15T14:25:26.644Z,2.95
2023-05-15T14:27:53.465Z,2.88
2023-05-15T14:30:22.951Z,3.58
2023-05-15T14:32:49.860Z,3.53
2023-05-15T14:35:16.687Z,3.00
2023-05-15T14:37:43.835Z,2.90
2023-05-15T14:40:11.386Z,2.70
2023-05-15T14:42:38.231Z,3.10
2023-05-15T14:45:05.530Z,2.55
2023-05-15T14:47:33.569Z,3.10
2023-05-15T14:50:00.456Z,2.42
2023-05-15T14:52:27.250Z,2.50
2023-05-15T14:55:07.908Z,1.90
2023-05-15T14:57:36.951Z,2.35
2023-05-15T15:00:08.132Z,2.35
2023-05-15T15:02:35.172Z,2.17
2023-05-15T15:05:02.265Z,2.47
2023-05-15T15:07:30.643Z,2.40
2023-05-15T15:09:57.569Z,2.50
2023-05-15T15:12:24.330Z,2.15
2023-05-15T15:14:51.135Z,1.80
2023-05-15T15:17:18.310Z,1.67
2023-05-15T15:19:45.057Z,1.70
2023-05-15T15:22:11.888Z,1.55
2023-05-15T15:24:38.622Z,2.00
2023-05-15T15:27:05.834Z,2.30
2023-05-15T15:29:32.639Z,2.00
2023-05-15T15:31:59.508Z,2.38
2023-05-15T15:34:26.763Z,2.40
2023-05-15T15:36:53.562Z,2.45
2023-05-15T15:39:20.340Z,2.45
2023-05-15T15:41:47.176Z,2.33
2023-05-15T15:44:13.919Z,3.10
2023-05-15T15:46:40.848Z,2.85
2023-05-15T15:49:07.836Z,3.63
2023-05-15T15:51:34.725Z,2.70
2023-05-15T15:54:01.540Z,2.72
2023-05-15T15:56:28.377Z,2.38
2023-05-15T15:58:55.273Z,2.55
2023-05-15T16:01:22.316Z,2.35
2023-05-15T16:03:49.495Z,2.63
2023-05-15T16:06:16.635Z,3.15
2023-05-15T16:08:43.560Z,4.45
2023-05-15T16:11:10.461Z,5.22
2023-05-15T16:13:38.310Z,5.35
2023-05-15T16:16:06.726Z,4.97
2023-05-15T16:18:35.030Z,4.95
2023-05-15T16:21:02.178Z,4.32
2023-05-15T16:23:33.518Z,4.95
2023-05-15T16:26:00.458Z,4.90
2023-05-15T16:28:27.271Z,4.55
2023-05-15T16:30:54.353Z,3.75
2023-05-15T16:33:21.377Z,3.67
2023-05-15T16:35:48.229Z,3.15
2023-05-15T16:38:15.731Z,3.22
2023-05-15T16:40:42.769Z,2.97
2023-05-15T16:43:09.659Z,3.10
2023-05-15T16:45:36.573Z,2.50
2023-05-15T16:48:03.886Z,2.28
2023-05-15T16:50:32.375Z,2.20
2023-05-15T16:52:59.553Z,2.00
2023-05-15T16:55:26.826Z,2.15
2023-05-15T16:57:53.636Z,2.67
2023-05-15T17:00:20.985Z,1.83
2023-05-15T17:02:50.453Z,2.25
2023-05-15T17:05:17.634Z,1.63
2023-05-15T17:07:45.155Z,1.65
2023-05-15T17:10:13.684Z,1.40
2023-05-15T17:12:40.673Z,1.80
2023-05-15T17:15:08.243Z,1.77
2023-05-15T17:17:35.394Z,1.80
2023-05-15T17:20:05.677Z,2.28
2023-05-15T17:22:32.518Z,2.10
2023-05-15T17:24:59.357Z,1.90
2023-05-15T17:27:26.225Z,2.08
2023-05-15T17:29:53.275Z,1.70
2023-05-15T17:32:20.237Z,1.73
2023-05-15T17:34:47.557Z,1.88
2023-05-15T17:37:14.886Z,2.00
2023-05-15T17:39:42.173Z,1.90
2023-05-15T17:42:09.314Z,2.08
2023-05-15T17:44:36.296Z,2.30
2023-05-15T17:47:03.386Z,2.00
2023-05-15T17:49:30.614Z,2.17
2023-05-15T17:51:57.441Z,2.13
2023-05-15T17:54:24.283Z,2.58
2023-05-15T17:56:51.123Z,1.90
2023-05-15T17:59:17.975Z,2.15
2023-05-15T18:01:45.070Z,2.50
2023-05-15T18:04:12.150Z,2.00
2023-05-15T18:06:39.208Z,2.47
2023-05-15T18:09:06.053Z,2.25
2023-05-15T18:11:32.851Z,2.22
2023-05-15T18:13:59.698Z,1.70
2023-05-15T18:16:26.866Z,1.88
2023-05-15T18:18:54.097Z,2.40
2023-05-15T18:21:20.994Z,1.75
2023-05-15T18:23:47.902Z,2.20
2023-05-15T18:26:14.871Z,2.22
2023-05-15T18:28:41.803Z,1.50
2023-05-15T18:31:08.850Z,2.15
2023-05-15T18:33:36.016Z,1.70
2023-05-15T18:36:05.281Z,1.65
2023-05-15T18:38:33.703Z,1.35
2023-05-15T18:41:00.646Z,1.63
2023-05-15T18:43:27.601Z,1.40
2023-05-15T18:45:54.777Z,1.40
2023-05-15T18:48:21.588Z,1.42
2023-05-15T18:50:48.528Z,1.40
2023-05-15T18:53:15.489Z,1.13
2023-05-15T18:55:42.359Z,1.20
2023-05-15T18:58:09.133Z,0.90
2023-05-15T19:00:38.494Z,0.80
2023-05-15T19:03:08.553Z,0.93
2023-05-15T19:05:35.837Z,0.60
2023-05-15T19:08:03.113Z,0.80
2023-05-15T19:10:30.599Z,0.57
2023-05-15T19:12:57.942Z,0.88
2023-05-15T19:15:25.811Z,0.70
2023-05-15T19:17:52.906Z,1.05
2023-05-15T19:20:20.457Z,0.93
2023-05-15T19:22:47.254Z,1.15
2023-05-15T19:25:14.270Z,1.20
2023-05-15T19:27:41.314Z,1.52
2023-05-15T19:30:09.808Z,1.10
2023-05-15T19:32:37.902Z,1.38
2023-05-15T19:35:05.693Z,1.40
2023-05-15T19:37:32.711Z,1.40
2023-05-15T19:39:59.862Z,1.27
2023-05-15T19:42:26.842Z,1.48
2023-05-15T19:44:53.702Z,1.50
2023-05-15T19:47:20.585Z,1.52
2023-05-15T19:49:47.471Z,1.15
2023-05-15T19:52:15.951Z,1.30
2023-05-15T19:54:42.809Z,1.33
2023-05-15T19:57:09.585Z,1.30
2023-05-15T19:59:36.372Z,1.45
2023-05-15T20:02:03.450Z,1.30
2023-05-15T20:04:32.495Z,1.52
2023-05-15T20:06:59.295Z,1.35
2023-05-15T20:09:26.074Z,1.58
2023-05-15T20:11:53.013Z,1.85
2023-05-15T20:14:19.932Z,1.40
2023-05-15T20:16:46.819Z,1.15
2023-05-15T20:19:13.896Z,1.65
2023-05-15T20:21:40.873Z,1.50
2023-05-15T20:24:07.973Z,1.70
2023-05-15T20:26:37.636Z,1.67
2023-05-15T20:29:04.471Z,2.15
2023-05-15T20:31:31.406Z,1.55
2023-05-15T20:33:59.053Z,1.48
2023-05-15T20:36:26.061Z,1.83
2023-05-15T20:38:53.076Z,2.13
2023-05-15T20:41:22.293Z,2.15
2023-05-15T20:43:50.099Z,1.85
2023-05-15T20:46:17.042Z,2.00
2023-05-15T20:48:44.080Z,2.15
2023-05-15T20:51:10.990Z,1.85
2023-05-15T20:53:37.782Z,2.20
2023-05-15T20:56:04.731Z,1.80
2023-05-15T20:58:31.636Z,2.03
2023-05-15T21:01:00.822Z,2.67
2023-05-15T21:03:29.095Z,2.47
2023-05-15T21:05:57.547Z,2.05
2023-05-15T21:08:24.878Z,2.63
2023-05-15T21:10:55.288Z,2.08
2023-05-15T21:13:22.293Z,2.15
2023-05-15T21:15:49.121Z,2.20
2023-05-15T21:18:16.143Z,2.03
2023-05-15T21:20:42.975Z,2.40
2023-05-15T21:23:09.785Z,2.22
2023-05-15T21:25:37.825Z,2.33
2023-05-15T21:28:04.959Z,2.55
2023-05-15T21:30:31.864Z,2.22
2023-05-15T21:32:59.053Z,2.40
2023-05-15T21:35:28.687Z,2.17
2023-05-15T21:37:55.533Z,2.65
2023-05-15T21:40:22.393Z,2.92
2023-05-15T21:42:49.283Z,2.55
2023-05-15T21:45:16.195Z,2.63
2023-05-15T21:47:43.058Z,2.35
2023-05-15T21:50:10.436Z,2.42
2023-05-15T21:52:37.174Z,1.92
2023-05-15T21:55:04.370Z,2.78
2023-05-15T21:57:31.101Z,2.10
2023-05-15T21:59:57.856Z,2.72
2023-05-15T22:02:24.695Z,2.38
2023-05-15T22:04:51.488Z,2.70
2023-05-15T22:07:18.474Z,1.98
2023-05-15T22:09:45.448Z,2.70
2023-05-15T22:12:12.876Z,2.28
2023-05-15T22:14:47.020Z,2.22
2023-05-15T22:17:26.345Z,2.33
2023-05-15T22:19:53.657Z,2.28
2023-05-15T22:22:20.817Z,2.40
2023-05-15T22:24:47.870Z,2.60
2023-05-15T22:27:16.628Z,1.83
2023-05-15T22:29:43.490Z,1.98
2023-05-15T22:32:10.430Z,2.75
2023-05-15T22:34:37.264Z,2.83
2023-05-15T22:37:04.325Z,2.30
2023-05-15T22:39:31.098Z,2.00
2023-05-15T22:41:57.857Z,2.00
2023-05-15T22:44:24.622Z,2.40
2023-05-15T22:46:51.398Z,2.58
2023-05-15T22:49:25.234Z,2.38
2023-05-15T22:51:56.730Z,2.72
2023-05-15T22:54:23.817Z,2.25
2023-05-15T22:56:52.108Z,2.30
2023-05-15T22:59:19.985Z,2.17
2023-05-15T23:01:47.573Z,2.25
2023-05-15T23:04:15.294Z,2.17
2023-05-15T23:06:42.482Z,2.00
2023-05-15T23:09:09.523Z,1.95
2023-05-15T23:11:37.665Z,2.28
2023-05-15T23:14:04.628Z,2.35
2023-05-15T23:16:31.728Z,2.13
2023-05-15T23:18:58.726Z,2.85
2023-05-15T23:21:25.977Z,2.05
2023-05-15T23:23:52.810Z,2.38
2023-05-15T23:26:19.723Z,2.05
2023-05-15T23:28:46.983Z,1.70
2023-05-15T23:31:14.285Z,2.22
2023-05-15T23:33:41.381Z,1.92
2023-05-15T23:36:08.715Z,2.13
2023-05-15T23:38:35.646Z,1.90
2023-05-15T23:41:02.631Z,1.77
2023-05-15T23:43:29.789Z,1.92
2023-05-15T23:45:56.615Z,2.38
2023-05-15T23:48:23.548Z,1.77
2023-05-15T23:50:51.521Z,2.00
2023-05-15T23:53:18.442Z,1.80
2023-05-15T23:55:45.314Z,2.20
2023-05-15T23:58:12.137Z,2.17
